Marion, South Dakota
Current Conditions -  °F | °C
As of 10:56 PM on Monday 26 Jan 2015 (Local Time) from KFSD Reporting Station
Few Clouds Few Clouds  
Wind Chill: 26°   Ceiling: Unl
Heat Index: 31°   Visibility: 10mi
Dew Point: 29°   Wind: 5mph
Humidity: 92%   Direction: 330°NNW
Pressure: 30.02"   Gusts: NA
Location:  43.42°N, 97.26°W
Report Text: KFSD 270456Z 33004KT 10SM FEW100 M01/M02 A3002 RMK AO2 SLP180 T10061017
Loading
Personal Weather Stations






























Interactive Weather Map New forecast layout! Learn more

10-Day Weather Forecast

Advertisements
Track Severe Weather on mobile